createdAt,value
2022-10-09T00:02:09.318Z,13.80
2022-10-09T00:05:15.573Z,13.83
2022-10-09T00:08:21.704Z,13.82
2022-10-09T00:11:27.567Z,13.81
2022-10-09T00:14:33.829Z,13.81
2022-10-09T00:17:39.938Z,13.81
2022-10-09T00:20:45.608Z,13.82
2022-10-09T00:23:53.036Z,13.84
2022-10-09T00:26:59.231Z,13.81
2022-10-09T00:30:06.039Z,13.80
2022-10-09T00:33:12.140Z,13.76
2022-10-09T00:36:17.583Z,13.74
2022-10-09T00:39:23.767Z,13.72
2022-10-09T00:42:30.024Z,13.73
2022-10-09T00:45:36.387Z,13.73
2022-10-09T00:48:42.488Z,13.74
2022-10-09T00:51:48.817Z,13.74
2022-10-09T00:54:56.619Z,13.73
2022-10-09T00:58:03.726Z,13.72
2022-10-09T01:01:09.917Z,13.72
2022-10-09T01:04:16.470Z,13.71
2022-10-09T01:07:30.889Z,13.71
2022-10-09T01:10:43.118Z,13.70
2022-10-09T01:13:59.306Z,13.68
2022-10-09T01:17:15.203Z,13.66
2022-10-09T01:20:27.859Z,13.62
2022-10-09T01:24:10.568Z,13.59
2022-10-09T01:27:20.158Z,13.56
2022-10-09T01:30:26.203Z,13.51
2022-10-09T01:33:31.999Z,13.50
2022-10-09T01:36:36.970Z,13.47
2022-10-09T01:39:45.911Z,13.41
2022-10-09T01:42:52.214Z,13.39
2022-10-09T01:46:25.157Z,13.38
2022-10-09T01:49:49.844Z,13.38
2022-10-09T01:53:00.588Z,13.36
2022-10-09T01:56:14.328Z,13.35
2022-10-09T01:59:21.923Z,13.34
2022-10-09T02:02:29.512Z,13.33
2022-10-09T02:05:36.916Z,13.32
2022-10-09T02:08:45.947Z,13.32
2022-10-09T02:11:56.924Z,13.29
2022-10-09T02:15:03.192Z,13.29
2022-10-09T02:18:15.000Z,13.28
2022-10-09T02:21:30.593Z,13.24
2022-10-09T02:24:39.090Z,13.18
2022-10-09T02:27:45.473Z,13.11
2022-10-09T02:30:58.583Z,13.07
2022-10-09T02:34:07.003Z,13.05
2022-10-09T02:37:13.415Z,13.03
2022-10-09T02:40:19.619Z,13.01
2022-10-09T02:43:25.979Z,12.96
2022-10-09T02:46:32.093Z,12.89
2022-10-09T02:49:38.376Z,12.84
2022-10-09T02:52:42.962Z,12.81
2022-10-09T02:55:49.011Z,12.76
2022-10-09T02:58:55.499Z,12.72
2022-10-09T03:02:01.945Z,12.64
2022-10-09T03:05:09.579Z,12.54
2022-10-09T03:08:16.213Z,12.47
2022-10-09T03:11:24.632Z,12.42
2022-10-09T03:14:30.687Z,12.42
2022-10-09T03:17:36.762Z,12.41
2022-10-09T03:20:42.900Z,12.40
2022-10-09T03:23:47.469Z,12.38
2022-10-09T03:26:53.535Z,12.35
2022-10-09T03:29:59.862Z,12.31
2022-10-09T03:33:06.026Z,12.28
2022-10-09T03:36:11.075Z,12.26
2022-10-09T03:39:17.127Z,12.21
2022-10-09T03:42:23.267Z,12.19
2022-10-09T03:45:27.772Z,12.17
2022-10-09T03:48:33.931Z,12.11
2022-10-09T03:51:38.446Z,12.06
2022-10-09T03:54:44.576Z,12.01
2022-10-09T03:57:49.123Z,11.96
2022-10-09T04:00:56.148Z,11.92
2022-10-09T04:04:02.399Z,11.88
2022-10-09T04:07:06.902Z,11.85
2022-10-09T04:10:13.389Z,11.83
2022-10-09T04:13:19.614Z,11.80
2022-10-09T04:16:24.103Z,11.76
2022-10-09T04:19:30.210Z,11.73
2022-10-09T04:22:36.351Z,11.67
2022-10-09T04:25:42.335Z,11.64
2022-10-09T04:28:48.533Z,11.61
2022-10-09T04:31:53.110Z,11.57
2022-10-09T04:34:59.376Z,11.53
2022-10-09T04:38:05.382Z,11.49
2022-10-09T04:41:11.638Z,11.41
2022-10-09T04:44:17.895Z,11.33
2022-10-09T04:47:24.101Z,11.27
2022-10-09T04:50:28.602Z,11.23
2022-10-09T04:53:35.082Z,11.19
2022-10-09T04:56:41.308Z,11.14
2022-10-09T04:59:45.766Z,11.11
2022-10-09T05:02:52.246Z,11.09
2022-10-09T05:06:04.084Z,11.05
2022-10-09T05:09:10.583Z,11.02
2022-10-09T05:12:17.057Z,10.99
2022-10-09T05:15:23.528Z,10.96
2022-10-09T05:18:29.902Z,10.91
2022-10-09T05:21:37.159Z,10.85
2022-10-09T05:24:43.256Z,10.79
2022-10-09T05:27:49.479Z,10.76
2022-10-09T05:30:53.958Z,10.74
2022-10-09T05:34:01.853Z,10.73
2022-10-09T05:37:08.024Z,10.73
2022-10-09T05:40:12.739Z,10.74
2022-10-09T05:43:18.850Z,10.73
2022-10-09T05:46:24.401Z,10.71
2022-10-09T05:49:30.577Z,10.65
2022-10-09T05:52:36.376Z,10.64
2022-10-09T05:55:40.917Z,10.64
2022-10-09T05:58:50.948Z,10.63
2022-10-09T06:01:57.148Z,10.63
2022-10-09T06:05:01.647Z,10.61
2022-10-09T06:08:07.905Z,10.60
2022-10-09T06:11:16.179Z,10.58
2022-10-09T06:14:23.220Z,10.57
2022-10-09T06:17:29.351Z,10.59
2022-10-09T06:20:33.992Z,10.60
2022-10-09T06:23:40.379Z,10.58
2022-10-09T06:26:46.691Z,10.58
2022-10-09T06:29:53.480Z,10.58
2022-10-09T06:32:59.627Z,10.59
2022-10-09T06:36:10.102Z,10.58
2022-10-09T06:39:17.040Z,10.58
2022-10-09T06:42:23.073Z,10.62
2022-10-09T06:45:29.342Z,10.68
2022-10-09T06:48:36.760Z,10.74
2022-10-09T06:51:42.902Z,10.81
2022-10-09T06:54:47.451Z,10.87
2022-10-09T06:57:53.583Z,10.91
2022-10-09T07:01:05.035Z,10.99
2022-10-09T07:04:14.554Z,11.08
2022-10-09T07:07:20.837Z,11.10
2022-10-09T07:10:25.501Z,11.10
2022-10-09T07:13:32.455Z,11.12
2022-10-09T07:16:40.251Z,11.16
2022-10-09T07:19:46.348Z,11.25
2022-10-09T07:22:52.499Z,11.33
2022-10-09T07:25:56.991Z,11.40
2022-10-09T07:29:03.202Z,11.45
2022-10-09T07:32:10.507Z,11.48
2022-10-09T07:35:17.182Z,11.52
2022-10-09T07:38:24.554Z,11.57
2022-10-09T07:41:31.784Z,11.62
2022-10-09T07:44:38.226Z,11.72
2022-10-09T07:47:44.396Z,11.76
2022-10-09T07:50:49.024Z,11.86
2022-10-09T07:53:56.520Z,11.94
2022-10-09T07:57:02.766Z,11.92
2022-10-09T08:00:11.259Z,11.88
2022-10-09T08:03:17.456Z,11.90
2022-10-09T08:06:22.304Z,12.01
2022-10-09T08:09:28.546Z,12.10
2022-10-09T08:12:34.731Z,12.17
2022-10-09T08:15:43.142Z,12.23
2022-10-09T08:18:49.635Z,12.25
2022-10-09T08:21:57.341Z,12.25
2022-10-09T08:25:07.312Z,12.26
2022-10-09T08:28:13.433Z,12.23
2022-10-09T08:31:18.850Z,12.18
2022-10-09T08:34:25.163Z,12.20
2022-10-09T08:37:29.675Z,12.24
2022-10-09T08:40:46.606Z,12.34
2022-10-09T08:43:58.436Z,12.45
2022-10-09T08:47:10.401Z,12.51
2022-10-09T08:50:23.003Z,12.56
2022-10-09T08:53:37.350Z,12.62
2022-10-09T08:56:43.643Z,12.62
2022-10-09T08:59:50.196Z,12.61
2022-10-09T09:03:19.078Z,12.63
2022-10-09T09:06:38.600Z,12.67
2022-10-09T09:09:53.743Z,12.73
2022-10-09T09:13:07.897Z,12.83
2022-10-09T09:16:23.802Z,12.83
2022-10-09T09:19:39.690Z,12.79
2022-10-09T09:22:49.746Z,12.71
2022-10-09T09:25:56.457Z,12.67
2022-10-09T09:29:06.264Z,12.72
2022-10-09T09:32:20.636Z,12.88
2022-10-09T09:35:35.999Z,13.00
2022-10-09T09:39:03.225Z,13.04
2022-10-09T09:42:16.817Z,13.04
2022-10-09T09:45:25.311Z,12.99
2022-10-09T09:48:36.795Z,13.00
2022-10-09T09:51:43.302Z,13.14
2022-10-09T09:54:50.832Z,13.35
2022-10-09T09:58:03.796Z,13.47
2022-10-09T10:01:21.119Z,13.48
2022-10-09T10:04:29.357Z,13.56
2022-10-09T10:07:37.097Z,13.62
2022-10-09T10:10:48.107Z,13.71
2022-10-09T10:13:54.380Z,13.84
2022-10-09T10:17:02.512Z,13.91
2022-10-09T10:20:12.538Z,13.89
2022-10-09T10:23:37.027Z,13.90
2022-10-09T10:26:48.786Z,14.07
2022-10-09T10:29:59.641Z,14.22
2022-10-09T10:33:14.483Z,14.28
2022-10-09T10:36:20.773Z,14.36
2022-10-09T10:39:37.235Z,14.49
2022-10-09T10:42:56.076Z,14.69
2022-10-09T10:46:13.595Z,14.80
2022-10-09T10:49:23.380Z,14.93
2022-10-09T10:52:46.035Z,15.02
2022-10-09T10:55:59.224Z,15.00
2022-10-09T10:59:29.296Z,14.89
2022-10-09T11:02:57.822Z,14.78
2022-10-09T11:06:12.687Z,14.74
2022-10-09T11:09:26.067Z,14.80
2022-10-09T11:12:48.211Z,14.95
2022-10-09T11:16:07.531Z,15.12
2022-10-09T11:19:45.402Z,15.19
2022-10-09T11:23:10.800Z,15.03
2022-10-09T11:26:27.323Z,14.82
2022-10-09T11:29:38.615Z,14.69
2022-10-09T11:32:55.818Z,14.58
2022-10-09T11:36:06.996Z,14.43
2022-10-09T11:39:18.317Z,14.39
2022-10-09T11:42:26.393Z,14.51
2022-10-09T11:45:42.987Z,14.69
2022-10-09T11:48:55.515Z,14.89
2022-10-09T11:52:09.658Z,15.05
2022-10-09T11:55:25.083Z,15.29
2022-10-09T11:58:31.300Z,15.40
2022-10-09T12:01:40.045Z,15.27
2022-10-09T12:04:54.856Z,15.11
2022-10-09T12:08:15.413Z,14.99
2022-10-09T12:11:25.632Z,14.98
2022-10-09T12:14:32.536Z,15.10
2022-10-09T12:17:47.788Z,15.17
2022-10-09T12:20:57.022Z,15.16
2022-10-09T12:24:03.796Z,15.16
2022-10-09T12:27:18.798Z,15.25
2022-10-09T12:30:27.129Z,15.38
2022-10-09T12:33:39.830Z,15.56
2022-10-09T12:36:45.988Z,15.71
2022-10-09T12:39:52.724Z,15.85
2022-10-09T12:43:01.842Z,15.93
2022-10-09T12:46:08.110Z,15.98
2022-10-09T12:49:22.804Z,15.97
2022-10-09T12:52:29.412Z,15.94
2022-10-09T12:55:37.607Z,16.01
2022-10-09T12:58:44.688Z,16.07
2022-10-09T13:01:52.482Z,16.03
2022-10-09T13:05:02.277Z,16.11
2022-10-09T13:08:22.462Z,16.24
2022-10-09T13:11:34.449Z,16.38
2022-10-09T13:14:46.602Z,16.55
2022-10-09T13:17:52.777Z,16.70
2022-10-09T13:21:07.655Z,16.69
2022-10-09T13:24:14.479Z,16.64
2022-10-09T13:27:21.339Z,16.55
2022-10-09T13:30:28.469Z,16.40
2022-10-09T13:33:34.803Z,16.32
2022-10-09T13:36:40.981Z,16.30
2022-10-09T13:39:47.267Z,16.31
2022-10-09T13:42:56.984Z,16.29
2022-10-09T13:46:03.053Z,16.32
2022-10-09T13:49:09.187Z,16.39
2022-10-09T13:52:15.323Z,16.46
2022-10-09T13:55:21.685Z,16.44
2022-10-09T13:58:27.886Z,16.38
2022-10-09T14:01:34.048Z,16.17
2022-10-09T14:04:40.181Z,15.91
2022-10-09T14:07:46.363Z,15.70
2022-10-09T14:10:52.467Z,15.51
2022-10-09T14:13:59.625Z,15.28
2022-10-09T14:17:05.842Z,15.13
2022-10-09T14:20:12.786Z,15.02
2022-10-09T14:23:19.026Z,14.94
2022-10-09T14:26:25.917Z,14.87
2022-10-09T14:29:32.075Z,14.81
2022-10-09T14:32:38.139Z,14.71
2022-10-09T14:35:42.591Z,14.61
2022-10-09T14:38:49.881Z,14.50
2022-10-09T14:41:55.984Z,14.41
2022-10-09T14:45:00.525Z,14.35
2022-10-09T14:48:07.060Z,14.28
2022-10-09T14:51:15.167Z,14.13
2022-10-09T14:54:21.510Z,13.99
2022-10-09T14:57:30.233Z,13.89
2022-10-09T15:00:39.035Z,13.82
2022-10-09T15:03:43.795Z,13.70
2022-10-09T15:06:50.103Z,13.55
2022-10-09T15:09:57.040Z,13.45
2022-10-09T15:13:03.203Z,13.39
2022-10-09T15:16:08.770Z,13.33
2022-10-09T15:19:14.999Z,13.25
2022-10-09T15:22:20.978Z,13.16
2022-10-09T15:25:31.558Z,13.08
2022-10-09T15:28:38.499Z,13.02
2022-10-09T15:31:44.897Z,12.93
2022-10-09T15:34:51.132Z,12.83
2022-10-09T15:37:57.213Z,12.69
2022-10-09T15:41:01.854Z,12.58
2022-10-09T15:44:09.792Z,12.50
2022-10-09T15:47:16.525Z,12.35
2022-10-09T15:50:23.006Z,12.21
2022-10-09T15:53:27.552Z,12.10
2022-10-09T15:56:38.757Z,11.97
2022-10-09T15:59:46.174Z,11.86
2022-10-09T16:02:52.580Z,11.73
2022-10-09T16:06:02.820Z,11.62
2022-10-09T16:09:09.051Z,11.52
2022-10-09T16:12:15.471Z,11.41
2022-10-09T16:15:21.622Z,11.31
2022-10-09T16:18:26.394Z,11.21
2022-10-09T16:21:33.264Z,11.07
2022-10-09T16:24:39.483Z,10.94
2022-10-09T16:27:43.941Z,10.78
2022-10-09T16:30:50.084Z,10.68
2022-10-09T16:33:54.527Z,10.58
2022-10-09T16:37:02.397Z,10.53
2022-10-09T16:40:10.290Z,10.51
2022-10-09T16:43:17.019Z,10.47
2022-10-09T16:46:25.214Z,10.39
2022-10-09T16:49:31.448Z,10.23
2022-10-09T16:52:36.010Z,10.09
2022-10-09T16:55:42.138Z,10.01
2022-10-09T16:58:46.607Z,9.94
2022-10-09T17:01:53.388Z,9.83
2022-10-09T17:04:59.591Z,9.76
2022-10-09T17:08:04.091Z,9.71
2022-10-09T17:11:13.115Z,9.61
2022-10-09T17:14:19.266Z,9.50
2022-10-09T17:17:23.814Z,9.39
2022-10-09T17:20:30.031Z,9.30
2022-10-09T17:23:34.492Z,9.23
2022-10-09T17:26:40.599Z,9.11
2022-10-09T17:29:46.688Z,9.05
2022-10-09T17:32:53.097Z,8.98
2022-10-09T17:46:58.032Z,9.15
2022-10-09T17:50:02.794Z,9.05
2022-10-09T17:53:09.040Z,8.90
2022-10-09T17:56:13.589Z,8.81
2022-10-09T17:59:19.809Z,8.78
2022-10-09T18:02:24.280Z,8.69
2022-10-09T18:05:30.573Z,8.52
2022-10-09T18:08:37.006Z,8.46
2022-10-09T18:11:43.170Z,8.40
2022-10-09T18:14:47.731Z,8.29
2022-10-09T18:17:53.814Z,8.17
2022-10-09T18:21:06.092Z,8.06
2022-10-09T18:24:12.376Z,7.97
2022-10-09T18:27:18.603Z,7.87
2022-10-09T18:30:23.209Z,7.79
2022-10-09T18:33:29.397Z,7.71
2022-10-09T18:36:35.085Z,7.69
2022-10-09T18:39:41.207Z,7.71
2022-10-09T18:42:47.606Z,7.67
2022-10-09T18:45:54.761Z,7.64
2022-10-09T18:49:01.124Z,7.57
2022-10-09T18:52:10.630Z,7.47
2022-10-09T18:55:20.116Z,7.36
2022-10-09T18:58:27.098Z,7.24
2022-10-09T19:01:33.280Z,7.16
2022-10-09T19:04:37.788Z,7.10
2022-10-09T19:07:43.905Z,7.05
2022-10-09T19:10:54.098Z,7.02
2022-10-09T19:14:00.972Z,6.94
2022-10-09T19:17:08.060Z,6.88
2022-10-09T19:20:14.665Z,6.83
2022-10-09T19:23:20.897Z,6.77
2022-10-09T19:26:25.155Z,6.77
2022-10-09T19:29:31.278Z,6.76
2022-10-09T19:32:37.209Z,6.72
2022-10-09T19:35:50.230Z,6.63
2022-10-09T19:38:56.253Z,6.56
2022-10-09T19:42:02.373Z,6.52
2022-10-09T19:45:10.473Z,6.45
2022-10-09T19:48:16.989Z,6.40
2022-10-09T19:51:25.044Z,6.35
2022-10-09T19:54:32.173Z,6.31
2022-10-09T19:57:38.431Z,6.23
2022-10-09T20:00:46.946Z,6.18
2022-10-09T20:03:57.137Z,6.15
2022-10-09T20:07:03.179Z,6.09
2022-10-09T20:10:10.528Z,6.03
2022-10-09T20:13:16.823Z,6.01
2022-10-09T20:16:21.777Z,6.03
2022-10-09T20:19:30.994Z,5.98
2022-10-09T20:22:37.120Z,5.90
2022-10-09T20:25:43.218Z,5.86
2022-10-09T20:28:50.349Z,5.85
2022-10-09T20:31:56.584Z,5.81
2022-10-09T20:35:02.719Z,5.74
2022-10-09T20:38:08.725Z,5.66
2022-10-09T20:41:14.962Z,5.60
2022-10-09T20:44:19.192Z,5.59
2022-10-09T20:47:25.493Z,5.55
2022-10-09T20:50:29.711Z,5.50
2022-10-09T20:53:36.034Z,5.41
2022-10-09T20:56:40.608Z,5.32
2022-10-09T20:59:47.061Z,5.25
2022-10-09T21:02:53.126Z,5.18
2022-10-09T21:05:59.352Z,5.19
2022-10-09T21:09:05.970Z,5.22
2022-10-09T21:12:12.241Z,5.21
2022-10-09T21:15:18.547Z,5.15
2022-10-09T21:18:23.087Z,5.05
2022-10-09T21:21:30.352Z,4.97
2022-10-09T21:24:36.449Z,4.89
2022-10-09T21:27:42.579Z,4.84
2022-10-09T21:30:48.640Z,4.81
2022-10-09T21:33:55.350Z,4.77
2022-10-09T21:37:20.289Z,4.72
2022-10-09T21:40:25.895Z,4.71
2022-10-09T21:43:31.938Z,4.69
2022-10-09T21:46:41.559Z,4.68
2022-10-09T21:49:47.885Z,4.66
2022-10-09T21:52:52.403Z,4.65
2022-10-09T21:55:58.867Z,4.63
2022-10-09T21:59:05.127Z,4.56
2022-10-09T22:02:09.559Z,4.48
2022-10-09T22:05:15.788Z,4.43
2022-10-09T22:08:22.145Z,4.39
2022-10-09T22:11:26.638Z,4.33
2022-10-09T22:14:33.029Z,4.27
2022-10-09T22:17:37.381Z,4.24
2022-10-09T22:20:45.376Z,4.20
2022-10-09T22:23:51.577Z,4.22
2022-10-09T22:26:57.567Z,4.28
2022-10-09T22:30:04.007Z,4.25
2022-10-09T22:33:08.231Z,4.20
2022-10-09T22:36:16.270Z,4.19
2022-10-09T22:39:22.396Z,4.20
2022-10-09T22:42:28.531Z,4.19
2022-10-09T22:45:37.690Z,4.19
2022-10-09T22:48:44.936Z,4.18
2022-10-09T22:51:51.061Z,4.16
2022-10-09T22:54:57.255Z,4.13
2022-10-09T22:58:03.295Z,4.04
2022-10-09T23:01:12.421Z,3.93
2022-10-09T23:04:20.454Z,3.84
2022-10-09T23:07:26.577Z,3.80
2022-10-09T23:10:32.801Z,3.79
2022-10-09T23:13:37.388Z,3.77
2022-10-09T23:16:43.828Z,3.73
2022-10-09T23:19:49.080Z,3.66
2022-10-09T23:22:55.184Z,3.57
2022-10-09T23:26:04.369Z,3.51
2022-10-09T23:29:15.657Z,3.46
2022-10-09T23:32:21.538Z,3.43
2022-10-09T23:35:27.691Z,3.38
2022-10-09T23:38:34.484Z,3.35
2022-10-09T23:41:41.126Z,3.34
2022-10-09T23:44:47.189Z,3.38
2022-10-09T23:47:53.095Z,3.37
2022-10-09T23:50:59.931Z,3.31
2022-10-09T23:54:07.248Z,3.25
2022-10-09T23:57:13.350Z,3.18
